• Join FlightAware (Why Join?)
  • Login
  • US Flag 
07:14AM EDT


 

Airport Tracker/Info


-or-


 

Live Flight TrackerFlight Track Log ✈ EJM249 ✈ 04-Oct-2013 ✈ KPDX - KSTP

Flight Track Log - Related Links

Times and Time Zones

All times are in EDT time to prevent confusion due to time zone crossing. See the EJM249 flight status page for this flight to view local times or setup timezone preferences in your user account.

Time Position Orientation Groundspeed Altitude Reporting Facility
EDT Latitude Longitude Course Direction KTS MPH feet Rate Location/Type
07:04PM 45.5922 -122.6203 296° West 189 217 700  Level Seattle Center
07:04PM 45.6025 -122.6500 296° West 197 227 2,000 3,900 Climbing Seattle Center
07:05PM 45.6244 -122.7031 301° West 225 259 5,400 4,680 Climbing Seattle Center
07:05PM 45.6367 -122.7131 330° Northwest 233 268 6,300 3,240 Climbing Seattle Center
07:06PM 45.6853 -122.6922 17° North 267 307 8,700 2,880 Climbing Seattle Center
07:07PM 45.7022 -122.5775 78° East 297 342 11,900 3,240 Climbing Seattle Center
07:08PM 45.7122 -122.4208 85° East 329 379 15,400 2,820 Climbing Seattle Center
07:09PM 45.7214 -122.2839 84° East 343 395 17,700 2,340 Climbing Seattle Center
07:10PM 45.7289 -122.1392 86° East 361 415 20,200 2,460 Climbing Seattle Center
07:11PM 45.7383 -121.9883 85° East 375 432 22,800 2,400 Climbing Seattle Center
07:12PM 45.7469 -121.8456 85° East 388 447 25,200 2,400 Climbing Seattle Center
07:13PM 45.7669 -121.6889 80° East 398 458 27,700 2,280 Climbing Seattle Center
07:14PM 45.7881 -121.5239 80° East 415 478 29,900 1,920 Climbing Seattle Center
07:15PM 45.8069 -121.3583 81° East 421 484 31,700 1,500 Climbing Seattle Center
07:16PM 45.8331 -121.1486 80° East 444 511 33,000 720 Climbing Seattle Center
07:17PM 45.8558 -120.9597 80° East 472 543 33,200 1,740 Climbing Seattle Center
07:18PM 45.8783 -120.7717 80° East 476 548 36,600 2,340 Climbing Seattle Center
07:19PM 45.8983 -120.5972 81° East 452 520 38,000 1,320 Climbing Seattle Center
07:20PM 45.9189 -120.4194 81° East 450 518 39,400 1,320 Climbing Seattle Center
07:21PM 45.9389 -120.2369 81° East 457 526 40,700 780 Climbing Seattle Center
07:22PM 45.9586 -120.0581 81° East 455 524 41,000 120 Climbing Seattle Center
07:23PM 45.9797 -119.8675 81° East 472 543 41,000  Level Seattle Center
07:24PM 45.9994 -119.6744 82° East 487 560 41,000  Level Seattle Center
07:25PM 46.0208 -119.4869 81° East 479 551 41,000  Level Seattle Center
07:26PM 46.0408 -119.2975 81° East 480 552 41,000  Level Seattle Center
07:27PM 46.0600 -119.1081 82° East 480 552 41,000  Level Seattle Center
07:28PM 46.0778 -118.9194 82° East 476 548 41,000  Level Seattle Center
07:29PM 46.0969 -118.7325 82° East 475 547 41,000  Level Seattle Center
07:30PM 46.1175 -118.5081 82° East 472 543 41,000  Level Seattle Center
07:31PM 46.1364 -118.3303 81° East 470 541 41,000  Level Seattle Center
07:32PM 46.1544 -118.1472 82° East 466 536 41,000  Level Seattle Center
07:33PM 46.1708 -117.9622 83° East 467 537 41,000  Level Seattle Center
07:34PM 46.1881 -117.7767 82° East 469 540 41,000  Level Seattle Center
07:35PM 46.2039 -117.5914 83° East 469 540 41,000  Level Seattle Center
07:36PM 46.2189 -117.4047 83° East 470 541 41,000  Level Seattle Center
07:37PM 46.2353 -117.2169 83° East 473 544 41,000  Level Seattle Center
07:38PM 46.2500 -117.0306 83° East 471 542 41,000  Level Seattle Center
07:39PM 46.2681 -116.8075 83° East 470 541 41,000  Level Seattle Center
07:40PM 46.2831 -116.6211 83° East 470 541 41,000  Level Seattle Center
07:42PM 46.2975 -116.4319 84° East 472 543 41,000 -60 Level Seattle Center
07:43PM 46.3122 -116.2433 83° East 476 548 40,900  Descending Seattle Center
07:44PM 46.3261 -116.0564 84° East 472 543 41,000  Climbing Seattle Center
07:45PM 46.3397 -115.8692 84° East 471 542 41,000  Level Seattle Center
07:46PM 46.3531 -115.6836 84° East 469 540 41,000  Level Seattle Center
07:47PM 46.3658 -115.4958 84° East 470 541 41,000  Level Seattle Center
07:48PM 46.3786 -115.3097 84° East 468 539 41,000  Level Seattle Center
07:49PM 46.3911 -115.1225 84° East 468 539 41,000  Level Seattle Center
07:50PM 46.4044 -114.9253 84° East 470 541 41,000  Level Seattle Center
07:51PM 46.4158 -114.7369 85° East 470 541 41,000  Level Salt Lake Center
07:52PM 46.4283 -114.5536 84° East 462 532 41,000  Level Salt Lake Center
07:53PM 46.4392 -114.3669 85° East 465 535 41,000  Level Salt Lake Center
07:54PM 46.4500 -114.1831 85° East 462 532 41,000  Level Salt Lake Center
07:55PM 46.4600 -113.9983 85° East 462 532 41,000  Level Salt Lake Center
07:56PM 46.4700 -113.8147 85° East 460 529 41,000  Level Salt Lake Center
07:57PM 46.4817 -113.5925 86° East 461 531 41,000  Level Salt Lake Center
07:58PM 46.4906 -113.4067 86° East 464 534 41,000  Level Salt Lake Center
07:59PM 46.5011 -113.2183 85° East 466 536 41,000 -60 Level Salt Lake Center
08:00PM 46.5097 -113.0297 86° East 471 542 40,900  Descending Salt Lake Center
08:01PM 46.5194 -112.8394 86° East 473 544 41,000  Climbing Salt Lake Center
08:02PM 46.5278 -112.6517 86° East 467 537 41,000  Level Salt Lake Center
08:03PM 46.5339 -112.4692 87° East 457 526 41,000  Level Salt Lake Center
08:04PM 46.5436 -112.2433 86° East 469 540 41,000  Level Salt Lake Center
08:05PM 46.5511 -112.0544 87° East 472 543 41,000  Level Salt Lake Center
08:06PM 46.5586 -111.8722 87° East 459 528 41,000  Level Salt Lake Center
08:07PM 46.5642 -111.6892 87° East 456 525 41,000  Level Salt Lake Center
08:08PM 46.5714 -111.5053 87° East 458 527 41,000  Level Salt Lake Center
08:09PM 46.5769 -111.3219 87° East 457 526 41,000  Level Salt Lake Center
08:10PM 46.5839 -111.1031 87° East 454 522 41,000  Level Salt Lake Center
08:11PM 46.5892 -110.9161 88° East 463 533 41,000  Level Salt Lake Center
08:12PM 46.5939 -110.7336 88° East 459 528 41,000  Level Salt Lake Center
08:13PM 46.5992 -110.5394 88° East 457 526 41,000  Level Salt Lake Center
08:14PM 46.6031 -110.3575 88° East 453 521 41,000  Level Salt Lake Center
08:15PM 46.6075 -110.1844 88° East 458 527 41,000  Level Salt Lake Center
08:16PM 46.6122 -109.9856 88° East 461 531 41,000  Level Salt Lake Center
08:17PM 46.6156 -109.7994 88° East 463 533 41,000  Level Salt Lake Center
08:18PM 46.6189 -109.6119 88° East 464 534 41,000  Level Salt Lake Center
08:19PM 46.6228 -109.3878 88° East 463 533 41,000  Level Salt Lake Center
08:20PM 46.6272 -109.1994 88° East 466 536 41,000  Level Salt Lake Center
08:21PM 46.6281 -109.0114 90° East 466 536 41,000  Level Salt Lake Center
08:22PM 46.6306 -108.8225 89° East 467 537 41,000  Level Salt Lake Center
08:23PM 46.6319 -108.6322 89° East 471 542 41,000  Level Salt Lake Center
08:24PM 46.6333 -108.4425 89° East 469 540 41,000  Level Salt Lake Center
08:25PM 46.6344 -108.2514 89° East 472 543 41,000  Level Salt Lake Center
08:26PM 46.6350 -108.0611 90° East 472 543 41,000  Level Salt Lake Center
08:28PM 46.6356 -107.8342 90° East 468 539 41,000  Level Salt Lake Center
08:29PM 46.6364 -107.6453 90° East 468 539 41,000  Level Salt Lake Center
08:30PM 46.6375 -107.4547 89° East 470 541 41,000  Level Salt Lake Center
08:31PM 46.6356 -107.2633 91° East 472 543 41,000  Level Salt Lake Center
08:32PM 46.6356 -107.0719 90° East 473 544 41,000  Level Salt Lake Center
08:33PM 46.6339 -106.8806 91° East 474 545 41,000  Level Salt Lake Center
08:34PM 46.6311 -106.6875 91° East 476 548 41,000  Level Salt Lake Center
08:35PM 46.6289 -106.4992 91° East 470 541 41,000  Level Salt Lake Center
08:36PM 46.6269 -106.2747 91° East 465 535 41,000  Level Salt Lake Center
08:37PM 46.6239 -106.0864 91° East 465 535 41,000  Level Salt Lake Center
08:38PM 46.6211 -105.8978 91° East 467 537 41,000  Level Salt Lake Center
08:39PM 46.6183 -105.7089 91° East 467 537 41,000  Level Salt Lake Center
08:40PM 46.6147 -105.5406 92° East 465 535 41,000  Level Salt Lake Center
08:41PM 46.6103 -105.3172 92° East 462 532 41,000  Level Salt Lake Center
08:42PM 46.6069 -105.1281 91° East 467 537 41,000  Level Salt Lake Center
08:43PM 46.6017 -104.9378 92° East 470 541 41,000  Level Salt Lake Center
08:44PM 46.5981 -104.7506 92° East 469 540 41,000  Level Salt Lake Center
08:45PM 46.5939 -104.5633 92° East 468 539 41,000  Level Salt Lake Center
08:46PM 46.5889 -104.3728 92° East 471 542 41,000  Level Salt Lake Center
08:47PM 46.5833 -104.1831 92° East 473 544 41,000  Level Salt Lake Center
08:48PM 46.5750 -103.9556 93° East 474 545 41,000  Level Salt Lake Center
08:49PM 46.5692 -103.7653 92° East 473 544 41,000  Level Salt Lake Center
08:50PM 46.5631 -103.5733 93° East 475 547 41,000  Level Salt Lake Center
08:51PM 46.5564 -103.3817 93° East 477 549 41,000  Level Salt Lake Center
08:52PM 46.5503 -103.1908 93° East 477 549 41,000  Level Salt Lake Center
08:53PM 46.5431 -103.0014 93° East 476 548 41,000  Level Salt Lake Center
08:54PM 46.5367 -102.8114 93° East 478 550 41,000  Level Minneapolis Center
08:55PM 46.5275 -102.5850 93° East 476 548 41,000  Level Minneapolis Center
08:56PM 46.5194 -102.3956 93° East 474 545 41,000  Level Minneapolis Center
08:57PM 46.5103 -102.2064 94° East 473 544 41,000  Level Minneapolis Center
08:58PM 46.5008 -102.0192 94° East 472 543 41,000  Level Minneapolis Center
08:59PM 46.4897 -101.7936 94° East 470 541 41,000  Level Minneapolis Center
09:00PM 46.4783 -101.6014 95° East 470 541 41,000  Level Minneapolis Center
09:02PM 46.4661 -101.4150 95° East 468 539 41,000  Level Minneapolis Center
09:03PM 46.4558 -101.2247 94° East 471 542 41,000  Level Minneapolis Center
09:04PM 46.4467 -101.0319 94° East 474 545 41,000  Level Minneapolis Center
09:05PM 46.4331 -100.8042 95° East 473 544 41,000  Level Minneapolis Center
09:06PM 46.4208 -100.6175 95° East 469 540 41,000  Level Minneapolis Center
09:07PM 46.4081 -100.4317 96° East 466 536 41,000  Level Minneapolis Center
09:08PM 46.3964 -100.2425 95° East 467 537 41,000  Level Minneapolis Center
09:09PM 46.3847 -100.0483 95° East 472 543 41,000  Level Minneapolis Center
09:10PM 46.3714 -99.8567 96° East 477 549 41,000  Level Minneapolis Center
09:11PM 46.3581 -99.6661 96° East 477 549 41,000  Level Minneapolis Center
09:12PM 46.3428 -99.4369 95° East 476 548 41,000  Level Minneapolis Center
09:13PM 46.3283 -99.2489 96° East 481 554 41,000  Level Minneapolis Center
09:14PM 46.3147 -99.0592 96° East 479 551 41,000  Level Minneapolis Center
09:15PM 46.3008 -98.8708 96° East 477 549 41,000  Level Minneapolis Center
09:16PM 46.2856 -98.6775 96° East 481 554 41,000  Level Minneapolis Center
09:17PM 46.2703 -98.4844 96° East 485 558 41,000  Level Minneapolis Center
09:18PM 46.2506 -98.2519 97° East 487 560 41,000  Level Minneapolis Center
09:19PM 46.2336 -98.0564 97° East 491 565 41,000  Level Minneapolis Center
09:20PM 46.2169 -97.8606 97° East 494 568 41,000  Level Minneapolis Center
09:21PM 46.1997 -97.6639 97° East 497 572 41,000  Level Minneapolis Center
09:22PM 46.1828 -97.4650 97° East 500 575 41,000  Level Minneapolis Center
09:23PM 46.1606 -97.2256 98° East 505 581 41,000  Level Minneapolis Center
09:24PM 46.1408 -97.0264 98° East 505 581 41,000  Level Minneapolis Center
09:25PM 46.1244 -96.8403 97° East 510 587 41,000  Level Minneapolis Center
09:26PM 46.0961 -96.5964 99° East 514 592 41,000  Level Minneapolis Center
09:27PM 46.0606 -96.4014 105° East 507 583 41,000 -1,020 Level Minneapolis Center
09:28PM 46.0272 -96.2058 104° East 504 580 39,000 -2,100 Descending Minneapolis Center
09:29PM 45.9931 -96.0136 104° East 497 572 36,700 -2,280 Descending Minneapolis Center
09:30PM 45.9583 -95.8156 104° East 508 585 34,400 -2,280 Descending Minneapolis Center
09:31PM 45.9231 -95.6167 104° East 513 590 32,100 -2,280 Descending Minneapolis Center
09:32PM 45.8875 -95.4211 105° East 509 586 29,700 -2,520 Descending Minneapolis Center
09:34PM 45.8425 -95.1794 105° East 520 598 26,900 -2,460 Descending Minneapolis Center
09:35PM 45.8092 -94.9931 104° East 516 594 24,700 -2,280 Descending Minneapolis Center
09:36PM 45.7719 -94.7969 105° East 510 587 22,300 -2,340 Descending Minneapolis Center
09:37PM 45.7356 -94.6031 105° East 508 585 20,000 -2,220 Descending Minneapolis Center
09:38PM 45.7000 -94.4150 105° East 498 573 17,800 -2,340 Descending Minneapolis Center
09:39PM 45.6583 -94.2006 105° East 476 548 15,200 -2,220 Descending Minneapolis Center
09:40PM 45.6250 -94.0319 106° East 449 517 13,200 -1,920 Descending Minneapolis Center
09:41PM 45.5947 -93.8722 105° East 419 482 11,300 -1,560 Descending Minneapolis Center
09:42PM 45.5694 -93.7492 106° East 331 381 10,100 -1,380 Descending Minneapolis Center
09:43PM 45.5456 -93.6431 108° East 291 335 8,500 -1,500 Descending Minneapolis Center
09:44PM 45.4967 -93.5686 133° Southeast 263 303 7,100 -1,440 Descending Minneapolis Center
09:45PM 45.4369 -93.5164 148° Southeast 252 290 5,600 -1,560 Descending Minneapolis Center
09:46PM 45.3661 -93.4544 148° Southeast 247 284 4,000 -780 Descending Minneapolis Center
09:47PM 45.3106 -93.4047 148° Southeast 238 274 4,000  Level Minneapolis Center
09:48PM 45.2544 -93.3542 148° Southeast 240 276 4,000  Level Minneapolis Center
09:49PM 45.1983 -93.3047 148° Southeast 238 274 4,000  Level Minneapolis Center
09:50PM 45.1414 -93.2547 148° Southeast 240 276 4,000  Level Minneapolis Center
09:51PM 45.0864 -93.2058 148° Southeast 233 268 4,000 -360 Level Minneapolis Center
09:52PM 45.0469 -93.1681 146° Southeast 174 200 3,300 -840 Descending Minneapolis Center
09:53PM 45.0092 -93.1314 146° Southeast 165 190 2,400 -840 Descending Minneapolis Center
09:54PM 44.9756 -93.1003 147° Southeast 136 157 1,600 -720 Descending Minneapolis Center
09:55PM 44.9472 -93.0728 146° Southeast 127 146 1,000 -600 Descending Minneapolis Center